Time;durP1;ratioP1;P1;durP2;ratioP2;P2;SDS_P1;SDS_P2;PMS_P1;PMS_P2;Temp;Humidity;BMP_temperature;BMP_pressure;BME280_temperature;BME280_humidity;BME280_pressure;Samples;Min_cycle;Max_cycle;Signal;HPM_P1;HPM_P2
2023/06/20 03:01:17;;;;;;;3.65;3.35;;;27.50;48.90;;;;;;5553763;23;45804;-58
2023/06/20 03:03:44;;;;;;;5.60;4.13;;;27.50;48.80;;;;;;4953423;28;45360;-59
2023/06/20 03:06:11;;;;;;;7.82;4.45;;;27.50;48.80;;;;;;4958592;28;45431;-59
2023/06/20 03:08:38;;;;;;;4.80;4.40;;;27.50;48.90;;;;;;4953154;28;45385;-63
2023/06/20 03:11:04;;;;;;;4.63;4.22;;;27.50;49.10;;;;;;4954239;28;45527;-59
2023/06/20 03:13:29;;;;;;;4.97;4.45;;;27.40;49.10;;;;;;4953538;28;45032;-60
2023/06/20 03:15:55;;;;;;;6.53;4.90;;;27.50;49.30;;;;;;4946176;28;45361;-59
2023/06/20 03:18:20;;;;;;;5.82;4.82;;;27.40;49.30;;;;;;4953829;28;45123;-59
2023/06/20 03:20:47;;;;;;;5.05;4.53;;;27.40;49.40;;;;;;4964996;28;45302;-59
2023/06/20 03:23:13;;;;;;;6.50;4.63;;;27.40;49.50;;;;;;4951413;28;45143;-61
2023/06/20 03:25:39;;;;;;;6.72;4.90;;;27.40;49.50;;;;;;4957514;28;45375;-60
2023/06/20 03:28:04;;;;;;;4.63;4.22;;;27.40;49.60;;;;;;4970937;28;45102;-59
2023/06/20 03:30:30;;;;;;;5.75;5.15;;;27.40;49.60;;;;;;4958954;28;46137;-59
2023/06/20 03:32:55;;;;;;;6.82;4.97;;;27.50;49.70;;;;;;4968463;28;45184;-60
2023/06/20 03:35:21;;;;;;;5.80;4.45;;;27.50;49.60;;;;;;4963523;28;45290;-60
2023/06/20 03:37:46;;;;;;;5.97;4.35;;;27.50;49.60;;;;;;4968558;28;45668;-61
2023/06/20 03:40:12;;;;;;;4.93;4.43;;;27.50;49.70;;;;;;4963888;28;45722;-59
2023/06/20 03:42:37;;;;;;;5.38;4.90;;;27.50;49.80;;;;;;4943813;28;44996;-60
2023/06/20 03:45:07;;;;;;;6.18;4.80;;;27.40;49.70;;;;;;4967753;28;45006;-60
2023/06/20 03:47:32;;;;;;;5.90;5.05;;;27.50;49.90;;;;;;4928721;28;45431;-59
2023/06/20 04:33:45;;;;;;;6.28;4.90;;;27.30;51.50;;;;;;4935439;28;45245;-58
2023/06/20 04:36:13;;;;;;;6.45;5.60;;;27.30;51.00;;;;;;4894660;28;45244;-60
2023/06/20 04:38:42;;;;;;;6.88;5.28;;;27.30;51.10;;;;;;4934054;28;44995;-60
2023/06/20 04:41:11;;;;;;;6.22;4.93;;;27.30;51.40;;;;;;4935812;28;47644;-59
2023/06/20 04:43:37;;;;;;;7.55;4.97;;;27.30;51.40;;;;;;4943121;28;45222;-60
2023/06/20 04:46:04;;;;;;;6.40;5.80;;;27.30;51.40;;;;;;4935844;28;44944;-60
2023/06/20 04:48:36;;;;;;;5.68;5.05;;;27.30;51.30;;;;;;4899316;28;46153;-60
2023/06/20 04:51:02;;;;;;;5.68;5.18;;;27.40;51.40;;;;;;4938527;28;46124;-60
2023/06/20 04:53:28;;;;;;;7.85;4.75;;;27.30;51.40;;;;;;4943823;28;45237;-59
2023/06/20 04:55:54;;;;;;;5.55;4.80;;;27.40;51.50;;;;;;4921453;28;45169;-59
2023/06/20 04:58:20;;;;;;;5.32;4.82;;;27.30;51.40;;;;;;4938627;28;45074;-59
2023/06/20 05:00:45;;;;;;;6.57;5.20;;;27.30;51.60;;;;;;4919686;28;47417;-59
2023/06/20 05:03:11;;;;;;;9.13;5.28;;;27.30;51.60;;;;;;4945664;28;45142;-60
2023/06/20 05:05:39;;;;;;;5.78;5.25;;;27.30;51.60;;;;;;4938675;28;45264;-59
2023/06/20 05:08:05;;;;;;;6.55;5.25;;;27.30;51.70;;;;;;4940200;28;45048;-60
2023/06/20 05:10:30;;;;;;;6.38;5.28;;;27.30;51.70;;;;;;4937275;28;46374;-60
2023/06/20 05:12:56;;;;;;;6.68;5.20;;;27.30;51.70;;;;;;4930320;28;44928;-60
2023/06/20 05:15:25;;;;;;;9.35;5.00;;;27.40;51.80;;;;;;4928419;28;45326;-59
2023/06/20 05:17:51;;;;;;;6.13;5.47;;;27.40;51.70;;;;;;4926998;28;45904;-60
2023/06/20 05:20:16;;;;;;;6.50;5.32;;;27.40;51.90;;;;;;4936053;28;45139;-59
2023/06/20 05:22:42;;;;;;;6.00;5.40;;;27.40;52.00;;;;;;4942640;28;44846;-59
2023/06/20 05:25:08;;;;;;;5.93;5.35;;;27.30;52.10;;;;;;4938516;28;45328;-60
2023/06/20 05:27:33;;;;;;;5.63;4.57;;;27.30;52.20;;;;;;4926988;28;45091;-58
2023/06/20 05:29:59;;;;;;;7.15;5.43;;;27.30;52.40;;;;;;4926630;28;45648;-60
2023/06/20 05:32:24;;;;;;;6.22;5.63;;;27.30;52.40;;;;;;4901719;28;44952;-60
2023/06/20 05:34:50;;;;;;;6.50;5.65;;;27.20;52.30;;;;;;4948772;28;45009;-60
2023/06/20 05:37:16;;;;;;;7.35;6.07;;;27.30;52.50;;;;;;4945370;28;46087;-58
2023/06/20 05:39:42;;;;;;;6.57;5.93;;;27.20;52.50;;;;;;4935607;28;46443;-60
2023/06/20 05:42:07;;;;;;;6.00;5.40;;;27.20;52.60;;;;;;4932439;28;45905;-60
2023/06/20 05:44:33;;;;;;;6.95;5.65;;;27.20;52.50;;;;;;4934234;28;45323;-60
2023/06/20 05:46:58;;;;;;;7.70;6.13;;;27.20;52.60;;;;;;4929984;28;45385;-67
2023/06/20 05:49:24;;;;;;;9.55;5.90;;;27.20;53.20;;;;;;4936652;28;45132;-66
2023/06/20 05:51:49;;;;;;;10.88;6.60;;;27.30;52.60;;;;;;4938314;28;45208;-66
2023/06/20 05:54:15;;;;;;;7.18;6.10;;;27.30;52.50;;;;;;4957161;28;45205;-66
2023/06/20 05:56:40;;;;;;;9.00;5.95;;;27.30;52.50;;;;;;4949766;28;46342;-66
2023/06/20 05:59:06;;;;;;;6.78;6.07;;;27.30;52.40;;;;;;4957426;28;46066;-66
2023/06/20 06:01:32;;;;;;;6.65;5.90;;;27.30;52.40;;;;;;4936624;28;45424;-68
2023/06/20 06:03:57;;;;;;;6.43;5.68;;;27.40;52.50;;;;;;4917580;28;45985;-66
2023/06/20 06:06:26;;;;;;;7.75;5.88;;;27.40;52.30;;;;;;4933019;28;45359;-66
2023/06/20 06:08:52;;;;;;;6.90;6.00;;;27.50;52.40;;;;;;4940284;28;46175;-67
2023/06/20 06:11:17;;;;;;;8.25;5.82;;;27.50;52.50;;;;;;4949859;28;44844;-66
2023/06/20 06:13:43;;;;;;;5.97;5.47;;;27.50;52.70;;;;;;4937194;28;45394;-68
2023/06/20 06:16:08;;;;;;;6.63;5.50;;;27.50;52.70;;;;;;4921948;28;45512;-67
2023/06/20 06:18:34;;;;;;;6.13;5.53;;;27.60;52.70;;;;;;4930033;28;45376;-66
2023/06/20 06:21:00;;;;;;;6.88;5.70;;;27.60;52.90;;;;;;4946738;28;45152;-67
2023/06/20 06:23:25;;;;;;;6.40;5.75;;;27.60;52.80;;;;;;4912870;28;45234;-67
2023/06/20 06:25:52;;;;;;;8.93;5.72;;;27.60;52.80;;;;;;4923528;28;45501;-65
2023/06/20 06:28:17;;;;;;;5.93;5.18;;;27.60;52.60;;;;;;4943085;28;45246;-66
2023/06/20 06:30:43;;;;;;;6.15;5.55;;;27.70;52.50;;;;;;4946420;28;45101;-66
2023/06/20 06:33:10;;;;;;;7.72;5.10;;;27.70;52.30;;;;;;4942725;28;45020;-68
2023/06/20 06:35:36;;;;;;;5.80;4.68;;;27.80;52.10;;;;;;4944224;28;45498;-66
2023/06/20 06:38:02;;;;;;;7.68;5.15;;;27.80;51.90;;;;;;4969350;28;45035;-66
2023/06/20 06:40:28;;;;;;;5.22;4.72;;;27.80;51.90;;;;;;4948281;28;45907;-68
2023/06/20 06:42:53;;;;;;;4.65;4.25;;;27.90;51.80;;;;;;4957700;28;45085;-68
2023/06/20 06:45:19;;;;;;;5.65;5.15;;;27.90;51.70;;;;;;4964186;28;45118;-65
2023/06/20 06:47:45;;;;;;;4.80;4.28;;;27.90;51.70;;;;;;4963342;28;45036;-67
2023/06/20 06:50:10;;;;;;;6.43;4.68;;;27.90;51.70;;;;;;4946880;28;45757;-65
2023/06/20 06:52:36;;;;;;;8.00;4.95;;;27.90;51.50;;;;;;4965907;28;45009;-68
2023/06/20 06:55:01;;;;;;;4.43;4.03;;;28.00;51.60;;;;;;4967105;28;45405;-67
2023/06/20 06:57:27;;;;;;;5.20;4.70;;;28.00;51.50;;;;;;4930527;28;47236;-67
2023/06/20 06:59:52;;;;;;;5.38;4.85;;;28.00;51.40;;;;;;4972346;28;44930;-67
2023/06/20 07:02:18;;;;;;;5.20;4.65;;;28.10;51.40;;;;;;4942390;28;45320;-66
2023/06/20 07:04:44;;;;;;;6.05;5.45;;;28.10;51.30;;;;;;4930717;28;44958;-65
2023/06/20 07:07:10;;;;;;;5.38;4.88;;;28.10;51.10;;;;;;4945235;28;44984;-65
2023/06/20 07:09:36;;;;;;;6.78;5.50;;;28.20;51.10;;;;;;4972042;28;45381;-67
2023/06/20 07:12:03;;;;;;;6.82;5.75;;;28.20;51.10;;;;;;4963525;28;45249;-66
2023/06/20 07:14:29;;;;;;;7.32;5.78;;;28.30;51.00;;;;;;4963329;28;45998;-66
2023/06/20 07:16:55;;;;;;;5.55;4.82;;;28.30;50.90;;;;;;4941711;28;47465;-66
2023/06/20 07:19:20;;;;;;;6.15;4.38;;;28.30;50.80;;;;;;4969286;28;44970;-67
2023/06/20 07:21:46;;;;;;;7.22;4.40;;;28.30;50.80;;;;;;4959411;28;44861;-67
2023/06/20 07:24:11;;;;;;;4.78;4.38;;;28.30;50.80;;;;;;4953247;28;44873;-67
2023/06/20 07:26:37;;;;;;;7.30;4.45;;;28.30;50.80;;;;;;4946618;28;44963;-67
2023/06/20 07:29:02;;;;;;;6.47;4.55;;;28.40;50.70;;;;;;4969850;28;44957;-67
2023/06/20 07:31:28;;;;;;;4.55;4.15;;;28.40;50.60;;;;;;4961875;28;45142;-66
2023/06/20 07:33:54;;;;;;;7.53;4.82;;;28.40;50.50;;;;;;4936376;28;44956;-66
2023/06/20 07:36:19;;;;;;;6.30;4.40;;;28.40;50.50;;;;;;4940044;28;46033;-66
2023/06/20 07:38:45;;;;;;;5.53;4.38;;;28.40;50.60;;;;;;4967157;28;45218;-60
2023/06/20 07:41:10;;;;;;;5.63;4.22;;;28.40;50.60;;;;;;4946718;28;45029;-59
2023/06/20 07:43:36;;;;;;;6.38;4.28;;;28.50;50.50;;;;;;4970954;28;45046;-57
2023/06/20 07:46:01;;;;;;;4.80;4.40;;;28.50;50.30;;;;;;4941913;28;46192;-60
2023/06/20 07:48:27;;;;;;;4.65;4.22;;;28.60;50.10;;;;;;4968456;28;45507;-59
2023/06/20 07:50:53;;;;;;;5.38;4.35;;;28.70;50.00;;;;;;4949814;28;45058;-56
2023/06/20 07:53:18;;;;;;;5.35;4.03;;;28.80;49.70;;;;;;4960091;28;45110;-58
2023/06/20 07:55:44;;;;;;;4.22;3.83;;;28.90;49.50;;;;;;4960430;28;47055;-61
2023/06/20 07:58:09;;;;;;;4.95;4.10;;;29.00;49.30;;;;;;4967786;28;44643;-57
2023/06/20 08:00:35;;;;;;;4.75;4.20;;;29.00;49.10;;;;;;4942971;28;44919;-60
2023/06/20 08:03:00;;;;;;;4.15;3.75;;;29.00;48.90;;;;;;4954348;28;45089;-57
2023/06/20 08:05:29;;;;;;;5.45;3.53;;;29.10;48.80;;;;;;4928965;28;46676;-66
2023/06/20 08:07:55;;;;;;;5.80;3.60;;;29.20;48.70;;;;;;4927995;28;44910;-61
2023/06/20 08:10:20;;;;;;;4.63;3.97;;;29.20;48.60;;;;;;4962726;28;45115;-59
2023/06/20 08:12:46;;;;;;;4.50;4.10;;;29.20;48.50;;;;;;4949942;28;46554;-59
2023/06/20 08:15:11;;;;;;;4.28;3.78;;;29.20;48.40;;;;;;4966395;28;46254;-60
2023/06/20 08:17:37;;;;;;;5.32;4.05;;;29.20;48.30;;;;;;4930691;28;45301;-60
2023/06/20 08:20:06;;;;;;;5.65;4.15;;;29.30;48.30;;;;;;4969939;28;45165;-63
2023/06/20 08:22:32;;;;;;;5.18;3.42;;;29.30;48.20;;;;;;4935951;28;45144;-62
2023/06/20 08:24:58;;;;;;;3.92;3.60;;;29.30;48.10;;;;;;4963593;28;46010;-59
2023/06/20 08:27:24;;;;;;;4.18;3.75;;;29.40;48.10;;;;;;4934346;28;45100;-62
2023/06/20 08:29:49;;;;;;;4.57;3.67;;;29.40;48.00;;;;;;4953341;28;45999;-60
2023/06/20 08:32:15;;;;;;;5.82;4.07;;;29.40;47.90;;;;;;4961665;28;44957;-60
2023/06/20 08:34:40;;;;;;;3.83;3.35;;;29.50;47.90;;;;;;4970798;28;45704;-60
2023/06/20 08:37:08;;;;;;;4.00;3.65;;;29.50;47.60;;;;;;4948103;28;44897;-59
2023/06/20 08:39:33;;;;;;;4.38;3.97;;;29.60;48.00;;;;;;4962212;28;45320;-60
2023/06/20 08:41:59;;;;;;;4.30;3.88;;;29.70;47.40;;;;;;4951750;28;45155;-61
2023/06/20 08:44:25;;;;;;;4.47;3.85;;;29.60;47.40;;;;;;4973614;28;45143;-60
2023/06/20 08:46:57;;;;;;;3.65;3.28;;;29.70;47.40;;;;;;4959086;28;45305;-58
2023/06/20 08:49:26;;;;;;;4.18;3.72;;;29.70;47.30;;;;;;4968830;28;45083;-58
2023/06/20 08:51:53;;;;;;;4.78;4.05;;;29.70;47.30;;;;;;4969787;28;45169;-56
2023/06/20 08:54:20;;;;;;;5.30;3.80;;;29.70;47.10;;;;;;4974118;28;45522;-60
2023/06/20 08:56:47;;;;;;;3.72;3.42;;;29.80;47.00;;;;;;4938413;28;45023;-59
2023/06/20 08:59:12;;;;;;;4.38;3.45;;;29.80;46.80;;;;;;4965835;28;45035;-57
2023/06/20 09:01:38;;;;;;;4.20;3.80;;;29.80;46.80;;;;;;4961041;28;45478;-58
2023/06/20 09:04:05;;;;;;;4.10;3.72;;;29.90;46.70;;;;;;4953621;28;45132;-58
2023/06/20 09:06:37;;;;;;;4.38;3.65;;;29.90;46.70;;;;;;4968288;28;45867;-59
2023/06/20 09:09:06;;;;;;;3.97;3.50;;;29.90;46.30;;;;;;4970858;28;45226;-57
2023/06/20 09:11:35;;;;;;;4.03;3.50;;;30.00;46.30;;;;;;4940296;28;44970;-61
2023/06/20 09:14:01;;;;;;;3.63;3.33;;;30.00;46.10;;;;;;4934096;28;46646;-60
2023/06/20 09:16:30;;;;;;;3.72;3.42;;;30.00;46.10;;;;;;4959865;28;44961;-60
2023/06/20 09:19:00;;;;;;;5.17;3.40;;;30.10;46.10;;;;;;4954933;28;46017;-61
2023/06/20 09:21:25;;;;;;;5.18;3.42;;;30.10;46.00;;;;;;4947442;28;45266;-60
2023/06/20 09:24:04;;;;;;;4.30;3.90;;;30.10;46.40;;;;;;4964615;28;45946;-59
2023/06/20 09:26:30;;;;;;;4.63;3.28;;;30.20;45.40;;;;;;4966314;28;45112;-60
2023/06/20 09:29:09;;;;;;;4.68;3.40;;;30.20;45.70;;;;;;4963802;28;45421;-61
2023/06/20 09:31:41;;;;;;;3.70;3.33;;;30.20;45.20;;;;;;4957365;28;45720;-60
2023/06/20 09:34:11;;;;;;;4.38;3.42;;;30.20;45.30;;;;;;4968671;28;45347;-61
2023/06/20 09:36:37;;;;;;;4.65;4.00;;;30.30;45.40;;;;;;4967474;28;45155;-60
2023/06/20 09:39:03;;;;;;;4.00;3.70;;;30.30;45.40;;;;;;4971938;28;45147;-59
2023/06/20 09:41:28;;;;;;;5.53;3.42;;;30.30;45.40;;;;;;4947856;28;45247;-57
2023/06/20 09:43:54;;;;;;;4.20;3.55;;;30.40;45.40;;;;;;4963316;28;45695;-58
2023/06/20 09:46:19;;;;;;;4.00;3.30;;;30.40;45.30;;;;;;4944245;28;45154;-58
2023/06/20 09:48:45;;;;;;;3.58;3.17;;;30.40;45.30;;;;;;4966913;28;45350;-57
2023/06/20 09:51:10;;;;;;;6.25;3.65;;;30.50;45.20;;;;;;4947928;28;45098;-56
2023/06/20 09:54:03;;;;;;;5.68;3.30;;;30.50;45.10;;;;;;4965308;28;44986;-59
2023/06/20 09:56:29;;;;;;;4.68;3.30;;;30.60;44.70;;;;;;4968749;28;44975;-58
2023/06/20 09:58:57;;;;;;;6.60;3.97;;;30.60;45.00;;;;;;4962620;28;45284;-57
2023/06/20 10:01:22;;;;;;;3.55;3.00;;;30.60;44.90;;;;;;4946315;28;45162;-56
2023/06/20 10:03:48;;;;;;;3.53;3.20;;;30.50;44.90;;;;;;4952334;28;45432;-58
2023/06/20 10:06:13;;;;;;;3.75;3.35;;;30.50;44.80;;;;;;4947229;28;44964;-55
2023/06/20 10:08:40;;;;;;;3.92;3.13;;;30.50;44.70;;;;;;4967255;28;45054;-55
2023/06/20 10:11:05;;;;;;;6.22;3.45;;;30.50;44.70;;;;;;4964386;28;45084;-57
2023/06/20 10:13:31;;;;;;;4.00;3.28;;;30.50;44.70;;;;;;4956941;28;45482;-57
2023/06/20 10:15:59;;;;;;;4.43;3.03;;;30.50;44.70;;;;;;4954110;28;45359;-59
2023/06/20 10:18:27;;;;;;;4.28;3.10;;;30.50;44.70;;;;;;4971026;28;45190;-59
2023/06/20 10:20:53;;;;;;;4.18;3.10;;;30.50;44.60;;;;;;4966016;28;45338;-58
2023/06/20 10:23:20;;;;;;;6.07;3.38;;;30.50;44.70;;;;;;4970866;28;46321;-56
2023/06/20 10:25:52;;;;;;;6.80;3.17;;;30.50;44.50;;;;;;4965426;28;45136;-59
2023/06/20 10:28:21;;;;;;;3.60;3.20;;;30.50;44.70;;;;;;4955051;28;45155;-56
2023/06/20 10:30:46;;;;;;;4.85;3.25;;;30.50;44.30;;;;;;4933939;28;45328;-57
2023/06/20 10:33:12;;;;;;;3.55;3.17;;;30.50;44.20;;;;;;4963033;28;46249;-57
2023/06/20 10:35:58;;;;;;;5.70;2.88;;;30.60;44.20;;;;;;4956847;28;45313;-59
2023/06/20 10:38:25;;;;;;;3.10;2.75;;;30.60;43.70;;;;;;4951665;28;44858;-58
2023/06/20 10:41:21;;;;;;;6.13;3.20;;;30.60;44.00;;;;;;4963755;28;45886;-58
2023/06/20 10:43:57;;;;;;;4.95;3.05;;;30.60;43.10;;;;;;4964851;28;46231;-59
2023/06/20 10:46:35;;;;;;;5.78;3.15;;;30.60;43.20;;;;;;4956628;28;45502;-59
2023/06/20 10:49:01;;;;;;;4.13;2.80;;;30.60;43.40;;;;;;4964913;28;45055;-58
2023/06/20 10:51:27;;;;;;;5.82;2.88;;;30.50;43.50;;;;;;4964014;28;45421;-58
2023/06/20 10:53:52;;;;;;;4.35;2.72;;;30.50;43.50;;;;;;4968525;28;46280;-58
2023/06/20 10:56:25;;;;;;;5.28;2.85;;;30.60;43.50;;;;;;4956612;28;45175;-58
2023/06/20 10:58:50;;;;;;;;;;;30.60;43.30;;;;;;4968754;28;45729;-63
2023/06/20 11:01:19;;;;;;;4.55;2.60;;;30.60;42.60;;;;;;4959554;28;45226;-64
2023/06/20 11:03:45;;;;;;;3.13;2.78;;;30.60;43.20;;;;;;4959320;28;45925;-64
2023/06/20 11:06:15;;;;;;;4.25;2.72;;;30.70;43.30;;;;;;4964452;28;45128;-63
2023/06/20 11:08:42;;;;;;;3.03;2.55;;;30.80;43.10;;;;;;4935231;28;44889;-64
2023/06/20 11:11:08;;;;;;;4.47;2.65;;;30.80;43.00;;;;;;4964460;28;45118;-62
2023/06/20 11:13:42;;;;;;;3.92;2.70;;;30.80;42.80;;;;;;4970069;28;45064;-62
2023/06/20 11:16:16;;;;;;;5.00;2.85;;;30.80;42.60;;;;;;4961974;28;45659;-63
2023/06/20 11:18:42;;;;;;;6.00;2.85;;;30.80;42.50;;;;;;4962656;28;45097;-63
2023/06/20 11:21:09;;;;;;;4.65;2.70;;;30.90;43.30;;;;;;4965044;28;45068;-64
2023/06/20 11:23:35;;;;;;;2.95;2.50;;;30.90;42.70;;;;;;4968408;28;45219;-62
2023/06/20 11:26:00;;;;;;;5.38;3.08;;;30.90;42.60;;;;;;4964558;28;45076;-63
2023/06/20 11:28:26;;;;;;;4.80;2.70;;;30.90;42.50;;;;;;4968118;28;45170;-64
2023/06/20 11:30:52;;;;;;;5.78;2.60;;;31.00;42.40;;;;;;4962245;28;45091;-62
2023/06/20 11:33:17;;;;;;;4.85;2.75;;;31.00;42.50;;;;;;4966672;28;45119;-61
2023/06/20 11:35:54;;;;;;;4.05;2.90;;;31.00;42.40;;;;;;4954283;28;45146;-62
2023/06/20 11:38:27;;;;;;;6.43;2.85;;;31.00;41.70;;;;;;4970566;28;45007;-62
2023/06/20 11:41:04;;;;;;;8.48;2.90;;;31.10;42.10;;;;;;4963387;28;44982;-64
2023/06/20 11:43:54;;;;;;;3.60;2.60;;;31.10;41.50;;;;;;4952922;28;45930;-62
2023/06/20 11:46:19;;;;;;;3.50;2.70;;;31.10;41.30;;;;;;4943938;28;45051;-62
2023/06/20 11:48:49;;;;;;;5.88;2.80;;;31.10;41.80;;;;;;4963966;28;44992;-64
2023/06/20 11:51:15;;;;;;;3.17;2.55;;;31.20;41.80;;;;;;4958197;28;45572;-64
2023/06/20 11:53:41;;;;;;;4.82;3.05;;;31.20;41.90;;;;;;4951904;28;46164;-64
2023/06/20 11:56:07;;;;;;;6.30;2.97;;;31.20;41.80;;;;;;4966932;28;44919;-63
2023/06/20 11:58:42;;;;;;;5.10;2.67;;;31.20;41.90;;;;;;4967015;28;45901;-63
2023/06/20 12:01:15;;;;;;;4.32;2.78;;;31.30;41.70;;;;;;4940833;28;46176;-62
2023/06/20 12:03:41;;;;;;;;;;;31.30;41.30;;;;;;4952563;28;45953;-63
2023/06/20 12:06:36;;;;;;;3.22;2.30;;;31.20;40.70;;;;;;4942529;28;45274;-63
2023/06/20 12:09:08;;;;;;;2.95;2.47;;;31.30;40.80;;;;;;4946614;28;45003;-63
2023/06/20 12:11:34;;;;;;;8.23;2.67;;;31.30;41.10;;;;;;4968444;28;45031;-62
2023/06/20 12:13:59;;;;;;;3.35;2.55;;;31.30;41.20;;;;;;4951931;28;46511;-64
2023/06/20 12:16:25;;;;;;;6.22;2.72;;;31.40;41.40;;;;;;4957804;28;44964;-60
2023/06/20 12:18:53;;;;;;;5.65;2.85;;;31.40;41.30;;;;;;4968521;28;45062;-63
2023/06/20 12:21:19;;;;;;;3.30;2.53;;;31.40;41.00;;;;;;4952202;28;45073;-64
2023/06/20 12:23:46;;;;;;;5.15;2.50;;;31.40;40.80;;;;;;4958434;28;45848;-64
2023/06/20 12:26:13;;;;;;;2.67;2.47;;;31.40;41.00;;;;;;4945380;28;45310;-64
2023/06/20 12:28:40;;;;;;;3.92;2.83;;;31.40;41.00;;;;;;4967672;28;45454;-64
2023/06/20 12:31:06;;;;;;;3.58;2.70;;;31.40;40.90;;;;;;4958082;28;45551;-63
2023/06/20 12:33:32;;;;;;;4.05;2.63;;;31.40;40.80;;;;;;4955890;28;45795;-61
2023/06/20 12:35:58;;;;;;;4.40;3.00;;;31.50;40.70;;;;;;4937232;28;44974;-63
2023/06/20 12:38:25;;;;;;;4.97;2.85;;;31.50;40.50;;;;;;4923867;28;44899;-64
2023/06/20 12:40:52;;;;;;;6.55;2.50;;;31.50;40.50;;;;;;4940129;28;45204;-62
2023/06/20 12:43:17;;;;;;;5.45;2.80;;;31.50;40.60;;;;;;4948460;28;46180;-61
2023/06/20 12:45:47;;;;;;;5.25;2.40;;;31.50;40.40;;;;;;4939664;28;45141;-56
2023/06/20 12:48:13;;;;;;;4.63;2.78;;;31.50;40.50;;;;;;4914997;28;45036;-57
2023/06/20 12:50:38;;;;;;;3.42;2.47;;;31.50;40.50;;;;;;4927659;28;45055;-55
2023/06/20 12:53:04;;;;;;;3.70;2.50;;;31.60;40.50;;;;;;4950654;28;45796;-57
2023/06/20 12:55:31;;;;;;;3.10;2.30;;;31.60;40.30;;;;;;4920609;28;45073;-56
2023/06/20 12:57:57;;;;;;;4.50;2.42;;;31.50;40.20;;;;;;4950626;28;45117;-58
2023/06/20 13:00:23;;;;;;;5.15;2.45;;;31.60;40.20;;;;;;4945316;28;45294;-58
2023/06/20 13:02:48;;;;;;;6.97;2.40;;;31.60;40.20;;;;;;4930609;28;46026;-57
2023/06/20 13:05:14;;;;;;;3.78;2.70;;;31.60;40.20;;;;;;4941449;28;45425;-57
2023/06/20 13:07:40;;;;;;;4.18;2.60;;;31.60;40.70;;;;;;4945650;28;45242;-56
2023/06/20 13:10:06;;;;;;;4.20;2.47;;;31.60;40.10;;;;;;4939571;28;46237;-59
2023/06/20 13:12:34;;;;;;;3.25;2.40;;;31.60;40.00;;;;;;4928084;28;45172;-57
2023/06/20 13:15:00;;;;;;;2.90;2.22;;;31.60;40.10;;;;;;4934078;28;45119;-56
2023/06/20 13:17:27;;;;;;;3.55;2.40;;;31.60;39.90;;;;;;4938356;28;45415;-58
2023/06/20 13:19:53;;;;;;;2.53;2.28;;;31.70;39.80;;;;;;4952668;28;45191;-57
2023/06/20 13:22:19;;;;;;;5.00;2.35;;;31.70;39.60;;;;;;4941208;28;46196;-58
2023/06/20 13:24:45;;;;;;;4.15;2.60;;;31.70;39.40;;;;;;4953498;28;45116;-57
2023/06/20 13:27:11;;;;;;;4.20;2.33;;;31.70;39.10;;;;;;4945482;28;44884;-57
2023/06/20 13:29:37;;;;;;;4.13;2.40;;;31.70;39.00;;;;;;4953951;28;45098;-56
2023/06/20 13:32:03;;;;;;;5.10;2.40;;;31.70;39.10;;;;;;4943151;28;46132;-56
2023/06/20 13:34:30;;;;;;;3.88;2.35;;;31.70;39.00;;;;;;4966229;28;44943;-54
2023/06/20 13:36:55;;;;;;;2.92;2.30;;;31.70;38.80;;;;;;4937898;28;48180;-54
2023/06/20 13:39:22;;;;;;;4.35;2.42;;;31.70;38.80;;;;;;4969443;28;44977;-57
2023/06/20 13:41:48;;;;;;;4.05;2.17;;;31.70;38.60;;;;;;4951803;28;47518;-56
2023/06/20 13:44:13;;;;;;;6.40;2.10;;;31.70;38.60;;;;;;4970328;28;45265;-56
2023/06/20 13:46:39;;;;;;;3.30;2.10;;;31.80;38.50;;;;;;4962798;28;45833;-54
2023/06/20 13:49:05;;;;;;;3.30;2.15;;;31.80;38.40;;;;;;4960458;28;45051;-55
2023/06/20 13:51:31;;;;;;;4.38;2.28;;;31.80;38.30;;;;;;4965443;28;45060;-57
2023/06/20 13:53:57;;;;;;;2.70;1.95;;;31.80;38.30;;;;;;4969895;28;44981;-55
2023/06/20 13:56:22;;;;;;;2.78;2.10;;;31.80;38.30;;;;;;4965704;28;45256;-56
2023/06/20 13:58:48;;;;;;;3.67;2.10;;;31.80;38.30;;;;;;4961147;28;44986;-56
2023/06/20 14:01:13;;;;;;;4.68;2.28;;;31.80;38.10;;;;;;4960068;28;45573;-58
2023/06/20 14:03:39;;;;;;;4.55;1.80;;;31.80;38.20;;;;;;4967187;28;45020;-57
2023/06/20 14:06:05;;;;;;;5.35;2.38;;;31.80;38.20;;;;;;4966255;28;45076;-57
2023/06/20 14:08:31;;;;;;;4.50;2.10;;;31.80;38.20;;;;;;4964963;28;45120;-56
2023/06/20 14:10:56;;;;;;;2.80;2.00;;;31.80;38.20;;;;;;4925663;28;46522;-58
2023/06/20 14:13:22;;;;;;;;;;;31.90;38.20;;;;;;4968251;28;45078;-56
2023/06/20 14:15:47;;;;;;;;;;;31.90;37.30;;;;;;4961450;28;45156;-55
2023/06/20 14:18:13;;;;;;;;;;;31.80;37.30;;;;;;4970858;28;45681;-57
2023/06/20 14:20:38;;;;;;;;;;;31.90;37.40;;;;;;4959145;28;45041;-56
2023/06/20 14:23:04;;;;;;;;;;;31.90;37.40;;;;;;4965498;28;45103;-59
2023/06/20 14:25:29;;;;;;;;;;;31.90;37.40;;;;;;4964892;28;45263;-57
2023/06/20 14:27:55;;;;;;;;;;;31.90;37.40;;;;;;4971105;28;45703;-59
2023/06/20 14:30:20;;;;;;;;;;;31.90;37.60;;;;;;4956941;28;45839;-59
2023/06/20 14:32:46;;;;;;;;;;;31.90;37.60;;;;;;4955276;28;45104;-60
2023/06/20 14:35:15;;;;;;;;;;;31.80;38.20;;;;;;4962779;28;45256;-58
2023/06/20 14:37:40;;;;;;;;;;;31.80;37.60;;;;;;4949701;28;45217;-60
2023/06/20 14:40:08;;;;;;;;;;;31.70;37.00;;;;;;4965105;28;47290;-60
2023/06/20 14:42:34;;;;;;;;;;;31.40;37.10;;;;;;4943107;28;45763;-60
2023/06/20 14:45:00;;;;;;;;;;;31.00;37.00;;;;;;4964114;28;45629;-60
2023/06/20 14:47:25;;;;;;;;;;;30.60;36.80;;;;;;4959523;28;45440;-57
2023/06/20 14:49:51;;;;;;;;;;;30.40;36.90;;;;;;4949265;28;45826;-57
2023/06/20 14:52:16;;;;;;;;;;;30.20;37.20;;;;;;4944223;28;45172;-57
2023/06/20 14:54:42;;;;;;;;;;;30.00;37.30;;;;;;4968650;28;45332;-58
2023/06/20 14:57:07;;;;;;;;;;;29.90;37.30;;;;;;4960745;28;45040;-58
2023/06/20 14:59:33;;;;;;;;;;;29.80;37.50;;;;;;4971173;28;46003;-58
2023/06/20 15:01:58;;;;;;;;;;;29.70;37.40;;;;;;4957772;28;45125;-59
2023/06/20 15:04:24;;;;;;;;;;;29.60;37.50;;;;;;4961268;28;45183;-58
2023/06/20 15:06:49;;;;;;;;;;;29.50;37.00;;;;;;4944995;28;45205;-58
2023/06/20 15:09:15;;;;;;;;;;;29.40;37.10;;;;;;4961720;28;46085;-60
2023/06/20 15:11:41;;;;;;;;;;;29.30;35.90;;;;;;4962105;28;45173;-58
2023/06/20 15:14:07;;;;;;;;;;;29.20;35.80;;;;;;4941811;28;45078;-60
2023/06/20 15:16:34;;;;;;;;;;;29.10;35.40;;;;;;4957198;28;45812;-58
2023/06/20 15:19:00;;;;;;;;;;;29.00;35.20;;;;;;4962211;28;45990;-60
2023/06/20 15:21:25;;;;;;;;;;;28.90;34.80;;;;;;4962063;28;45300;-57
2023/06/20 15:23:51;;;;;;;;;;;28.80;34.60;;;;;;4966943;28;45090;-58
2023/06/20 15:26:16;;;;;;;;;;;28.70;34.10;;;;;;4954400;28;45063;-59
2023/06/20 15:28:42;;;;;;;;;;;28.70;34.20;;;;;;4964858;28;45940;-57
2023/06/20 15:31:08;;;;;;;;;;;28.50;34.10;;;;;;4958710;28;45064;-57
2023/06/20 15:33:33;;;;;;;;;;;28.40;34.70;;;;;;4965334;28;44966;-58
2023/06/20 15:35:59;;;;;;;;;;;28.40;35.40;;;;;;4954027;28;45112;-57
2023/06/20 15:38:25;;;;;;;;;;;28.30;35.90;;;;;;4967324;28;45484;-58
2023/06/20 15:40:50;;;;;;;;;;;28.30;36.20;;;;;;4964388;28;44997;-58
2023/06/20 15:43:17;;;;;;;;;;;28.30;36.60;;;;;;4961999;28;46216;-57
2023/06/20 15:45:43;;;;;;;;;;;28.20;36.90;;;;;;4959076;28;45184;-59
2023/06/20 15:48:10;;;;;;;;;;;28.20;37.10;;;;;;4958641;28;45460;-57
2023/06/20 15:50:36;;;;;;;;;;;28.20;37.40;;;;;;4964255;28;44725;-58
2023/06/20 15:53:01;;;;;;;;;;;28.10;37.60;;;;;;4962902;28;45047;-58
2023/06/20 15:55:27;;;;;;;;;;;28.10;37.90;;;;;;4959880;28;45126;-60
2023/06/20 15:57:52;;;;;;;;;;;28.00;38.10;;;;;;4952881;28;45875;-59
2023/06/20 16:00:18;;;;;;;;;;;28.00;38.30;;;;;;4944701;28;46129;-59
2023/06/20 16:02:45;;;;;;;;;;;27.90;38.50;;;;;;4957294;28;44805;-59
2023/06/20 16:05:10;;;;;;;;;;;27.90;38.70;;;;;;4962425;28;45018;-57
2023/06/20 16:07:36;;;;;;;;;;;27.90;38.90;;;;;;4964203;28;46012;-56
2023/06/20 16:10:02;;;;;;;;;;;27.80;39.10;;;;;;4960633;28;45066;-59
2023/06/20 16:12:28;;;;;;;;;;;27.70;39.30;;;;;;4923419;28;45060;-57
2023/06/20 16:14:53;;;;;;;;;;;27.70;39.40;;;;;;4963601;28;45275;-58
2023/06/20 16:17:19;;;;;;;;;;;27.70;39.60;;;;;;4949121;28;46134;-58
2023/06/20 16:19:44;;;;;;;;;;;27.60;39.70;;;;;;4971334;28;45143;-58
2023/06/20 16:22:13;;;;;;;;;;;27.70;39.60;;;;;;4940756;28;46756;-58
2023/06/20 16:24:39;;;;;;;;;;;27.90;39.40;;;;;;4968687;28;45088;-58
2023/06/20 16:27:05;;;;;;;;;;;28.00;39.20;;;;;;4969602;28;46111;-59
2023/06/20 16:29:30;;;;;;;;;;;28.20;38.90;;;;;;4963804;28;45482;-61
2023/06/20 16:31:56;;;;;;;;;;;28.20;39.40;;;;;;4951838;28;45003;-59
2023/06/20 16:34:21;;;;;;;;;;;28.30;38.70;;;;;;4939427;28;45076;-59
2023/06/20 16:36:47;;;;;;;;;;;28.40;38.60;;;;;;4956944;28;46838;-58
2023/06/20 16:39:12;;;;;;;;;;;28.50;38.60;;;;;;4939894;28;45089;-59
2023/06/20 16:41:41;;;;;;;;;;;28.60;38.60;;;;;;4958859;28;45109;-59
2023/06/20 16:44:06;;;;;;;;;;;28.60;38.50;;;;;;4957392;28;45278;-58